Time;durP1;ratioP1;P1;durP2;ratioP2;P2;SDS_P1;SDS_P2;PMS_P1;PMS_P2;Temp;Humidity;BMP_temperature;BMP_pressure;BME280_temperature;BME280_humidity;BME280_pressure;Samples;Min_cycle;Max_cycle;Signal;HPM_P1;HPM_P2
2022/04/05 00:00:53;;;;;;;5.00;3.83;;;;;;;7.43;82.86;99521.91;5045234;28;20126;-71
2022/04/05 00:03:20;;;;;;;5.57;3.22;;;;;;;7.36;83.21;99531.81;5045543;28;20103;-71
2022/04/05 00:05:46;;;;;;;5.47;3.70;;;;;;;7.47;82.85;99534.66;5052906;28;20428;-71
2022/04/05 00:08:12;;;;;;;5.70;3.33;;;;;;;7.48;82.88;99528.50;5045548;28;20076;-71
2022/04/05 00:10:39;;;;;;;5.40;3.63;;;;;;;7.66;82.55;99532.66;5044710;28;20044;-71
2022/04/05 00:13:06;;;;;;;4.88;3.22;;;;;;;7.64;82.33;99528.47;5044995;28;20413;-71
2022/04/05 00:15:32;;;;;;;5.90;3.90;;;;;;;7.61;82.68;99531.25;5042243;28;20045;-71
2022/04/05 00:18:00;;;;;;;5.53;3.45;;;;;;;7.62;83.07;99531.16;5045420;28;20126;-72
2022/04/05 00:20:27;;;;;;;5.40;3.67;;;;;;;7.31;84.26;99515.63;5045176;28;20048;-72
2022/04/05 00:22:54;;;;;;;5.90;3.63;;;;;;;7.39;84.04;99523.00;5045533;28;20048;-72
2022/04/05 00:25:21;;;;;;;6.93;4.55;;;;;;;7.55;83.44;99524.63;5056264;28;20075;-72
2022/04/05 00:27:47;;;;;;;5.78;4.05;;;;;;;7.65;83.19;99524.94;5065242;28;20079;-72
2022/04/05 00:30:15;;;;;;;6.10;3.70;;;;;;;7.62;82.80;99519.88;5046622;28;20421;-72
2022/04/05 00:32:42;;;;;;;6.68;3.50;;;;;;;7.44;83.67;99531.38;5045002;28;20132;-72
2022/04/05 00:35:10;;;;;;;5.28;3.58;;;;;;;7.45;84.58;99523.47;5044575;28;20048;-72
2022/04/05 00:37:37;;;;;;;4.35;2.88;;;;;;;7.47;83.98;99526.81;5043641;28;20064;-72
2022/04/05 00:40:05;;;;;;;6.47;4.43;;;;;;;7.43;84.35;99520.09;5044356;28;20126;-72
2022/04/05 00:42:32;;;;;;;7.15;4.43;;;;;;;7.50;83.99;99523.22;5044752;28;20071;-72
2022/04/05 00:44:59;;;;;;;6.65;3.90;;;;;;;7.40;84.61;99517.69;5042937;28;20044;-72
2022/04/05 00:47:25;;;;;;;5.65;3.80;;;;;;;7.16;84.78;99517.34;5044303;28;20533;-72
2022/04/05 00:49:54;;;;;;;6.93;4.60;;;;;;;7.27;85.11;99527.16;5044968;28;20087;-72
2022/04/05 00:52:23;;;;;;;5.28;3.45;;;;;;;7.47;83.58;99516.38;5045343;28;20099;-72
2022/04/05 00:54:51;;;;;;;5.30;3.78;;;;;;;7.28;83.97;99520.97;5047132;28;20141;-72
2022/04/05 00:57:19;;;;;;;8.32;3.67;;;;;;;7.53;83.59;99531.69;5064899;28;20048;-72
2022/04/05 00:59:48;;;;;;;5.25;3.50;;;;;;;7.62;82.74;99531.16;5064843;28;20048;-72
2022/04/05 01:02:17;;;;;;;7.28;4.10;;;;;;;7.42;83.19;99531.50;5063285;28;20049;-72
2022/04/05 01:04:45;;;;;;;4.68;3.50;;;;;;;7.46;83.72;99524.31;5054179;28;20049;-72
2022/04/05 01:07:14;;;;;;;5.47;3.65;;;;;;;7.49;83.16;99526.75;5040081;28;20041;-72
2022/04/05 01:09:42;;;;;;;6.57;4.05;;;;;;;7.53;83.03;99530.84;5048487;28;20048;-72
2022/04/05 01:12:12;;;;;;;4.93;3.42;;;;;;;7.65;81.91;99530.97;5048916;28;20053;-72
2022/04/05 01:14:39;;;;;;;8.98;3.65;;;;;;;7.58;81.92;99527.03;5044861;28;20044;-72
2022/04/05 01:17:07;;;;;;;4.47;3.15;;;;;;;7.83;81.70;99529.88;5042797;28;20126;-72
2022/04/05 01:19:34;;;;;;;6.50;3.85;;;;;;;7.82;80.99;99535.19;5042878;28;20166;-72
2022/04/05 01:22:01;;;;;;;6.13;4.07;;;;;;;7.81;81.68;99539.56;5042901;28;20497;-72
2022/04/05 01:24:30;;;;;;;5.15;3.58;;;;;;;7.62;81.95;99525.94;5043234;28;20048;-72
2022/04/05 01:26:58;;;;;;;6.63;4.40;;;;;;;7.56;82.50;99526.31;5045508;28;20048;-72
2022/04/05 01:29:25;;;;;;;5.53;4.03;;;;;;;7.57;82.54;99530.59;5066579;28;20114;-72
2022/04/05 01:31:54;;;;;;;7.85;4.35;;;;;;;7.59;83.33;99522.66;5065981;28;20052;-72
2022/04/05 01:34:23;;;;;;;6.50;4.75;;;;;;;7.53;83.38;99518.66;5052094;28;20049;-72
2022/04/05 01:36:51;;;;;;;6.30;4.32;;;;;;;7.74;82.63;99514.78;5040277;28;20523;-72
2022/04/05 01:39:19;;;;;;;6.18;3.95;;;;;;;7.96;81.73;99521.31;5048073;28;20044;-72
2022/04/05 01:41:47;;;;;;;6.57;4.70;;;;;;;7.92;82.25;99515.44;5058124;28;20044;-72
2022/04/05 01:44:15;;;;;;;9.52;4.63;;;;;;;8.01;82.02;99524.50;5068635;28;20052;-72
2022/04/05 01:46:41;;;;;;;6.22;3.85;;;;;;;7.84;82.27;99515.91;5062807;28;20495;-72
2022/04/05 01:49:09;;;;;;;5.90;3.67;;;;;;;7.59;83.38;99520.06;5067679;28;20518;-72
2022/04/05 01:51:37;;;;;;;6.05;4.00;;;;;;;7.55;83.84;99524.63;5068668;28;20428;-72
2022/04/05 01:54:06;;;;;;;16.73;4.53;;;;;;;7.61;83.62;99526.84;5067107;28;20514;-72
2022/04/05 01:56:32;;;;;;;5.45;3.40;;;;;;;7.53;83.57;99521.28;5065830;28;20044;-72
2022/04/05 01:59:00;;;;;;;5.45;3.90;;;;;;;7.42;84.46;99522.81;5050496;28;20541;-72
2022/04/05 02:01:27;;;;;;;5.78;3.58;;;;;;;7.41;84.60;99521.13;5066352;28;20071;-72
2022/04/05 02:03:53;;;;;;;6.85;3.80;;;;;;;7.32;85.29;99522.50;5066610;28;20057;-73
2022/04/05 02:06:20;;;;;;;6.32;4.00;;;;;;;7.41;84.99;99519.38;5063153;28;20045;-73
2022/04/05 02:08:46;;;;;;;5.82;3.53;;;;;;;7.40;84.60;99525.50;5066099;28;20052;-73
2022/04/05 02:11:13;;;;;;;5.90;3.85;;;;;;;7.55;84.19;99522.00;5067680;28;20098;-73
2022/04/05 02:13:39;;;;;;;5.75;3.97;;;;;;;7.67;83.94;99516.06;5068303;28;20047;-73
2022/04/05 02:16:07;;;;;;;5.05;3.53;;;;;;;7.31;85.67;99523.44;5068404;28;20106;-72
2022/04/05 02:18:36;;;;;;;5.38;3.38;;;;;;;7.40;84.66;99522.88;5068306;28;20114;-72
2022/04/05 02:21:02;;;;;;;5.25;3.30;;;;;;;7.31;85.25;99518.22;5068738;28;20101;-72
2022/04/05 02:23:28;;;;;;;5.25;3.53;;;;;;;7.28;85.54;99527.03;5069008;28;20048;-72
2022/04/05 02:25:55;;;;;;;6.90;4.15;;;;;;;7.41;85.32;99518.53;5069011;28;20057;-72
2022/04/05 02:28:21;;;;;;;5.88;3.65;;;;;;;7.61;84.15;99519.03;5068957;28;20582;-72
2022/04/05 02:30:47;;;;;;;5.95;3.30;;;;;;;7.59;83.99;99526.13;5067655;28;20493;-72
2022/04/05 02:33:15;;;;;;;5.57;3.88;;;;;;;7.61;84.24;99529.47;5068225;28;20052;-72
2022/04/05 02:35:43;;;;;;;7.40;3.90;;;;;;;7.57;84.18;99521.94;5068624;28;20040;-72
2022/04/05 02:38:09;;;;;;;7.35;4.15;;;;;;;7.53;83.94;99523.88;5067091;28;20057;-72
2022/04/05 02:40:36;;;;;;;5.03;3.55;;;;;;;7.51;84.08;99520.50;5066893;28;20408;-72
2022/04/05 02:43:03;;;;;;;4.85;2.70;;;;;;;7.11;84.62;99518.50;5069179;28;20045;-72
2022/04/05 02:45:30;;;;;;;3.58;2.58;;;;;;;6.85;85.65;99527.78;5069017;28;20381;-72
2022/04/05 02:47:56;;;;;;;5.88;2.70;;;;;;;7.14;85.74;99526.16;5066736;28;20049;-72
2022/04/05 02:50:24;;;;;;;4.05;2.85;;;;;;;7.46;84.25;99532.16;5067813;28;20044;-72
2022/04/05 02:52:52;;;;;;;4.10;2.47;;;;;;;7.41;84.02;99526.34;5033589;28;1003607;-72
2022/04/05 02:55:19;;;;;;;4.55;2.58;;;;;;;7.17;84.67;99539.00;5068473;28;20129;-73
2022/04/05 02:57:46;;;;;;;3.25;2.08;;;;;;;7.39;84.05;99536.84;5069191;28;20044;-73
2022/04/05 03:00:15;;;;;;;6.60;2.67;;;;;;;7.43;83.78;99537.53;5069015;28;20041;-73
2022/04/05 03:02:42;;;;;;;2.97;2.08;;;;;;;7.63;83.13;99543.28;5068865;28;20041;-73
2022/04/05 03:05:09;;;;;;;4.95;2.78;;;;;;;7.43;83.99;99553.19;5069043;28;20040;-73
2022/04/05 03:07:38;;;;;;;4.15;2.92;;;;;;;7.35;84.21;99549.22;5068841;28;20044;-73
2022/04/05 03:10:07;;;;;;;6.72;3.15;;;;;;;7.46;84.07;99556.47;5068117;28;20037;-73
2022/04/05 03:12:34;;;;;;;4.55;3.00;;;;;;;7.47;84.30;99555.50;5064344;28;20051;-73
2022/04/05 03:15:01;;;;;;;5.18;3.20;;;;;;;7.48;83.80;99553.75;5069311;28;20518;-73
2022/04/05 03:17:27;;;;;;;6.20;3.17;;;;;;;7.96;82.58;99560.47;5067655;28;20117;-73
2022/04/05 03:19:53;;;;;;;5.93;3.40;;;;;;;7.80;82.35;99555.31;5067430;28;20064;-73
2022/04/05 03:22:21;;;;;;;6.57;3.20;;;;;;;7.80;82.38;99558.75;5068590;28;20045;-73
2022/04/05 03:24:48;;;;;;;5.97;4.00;;;;;;;7.69;82.57;99563.78;5068784;28;20047;-73
2022/04/05 03:27:14;;;;;;;5.90;3.90;;;;;;;7.67;82.49;99559.59;5065010;28;20117;-73
2022/04/05 03:29:41;;;;;;;5.57;3.60;;;;;;;7.67;82.48;99559.59;5048307;28;20045;-73
2022/04/05 03:32:08;;;;;;;4.70;3.08;;;;;;;7.76;81.69;99570.31;5060723;28;20101;-73
2022/04/05 03:34:35;;;;;;;5.13;3.47;;;;;;;7.92;81.24;99567.66;5068688;28;20051;-73
2022/04/05 03:37:01;;;;;;;6.30;3.55;;;;;;;7.71;82.44;99569.75;5068959;28;20063;-73
2022/04/05 03:39:28;;;;;;;6.85;3.47;;;;;;;7.95;81.41;99572.69;5067485;28;20113;-73
2022/04/05 03:41:56;;;;;;;7.68;3.28;;;;;;;8.05;81.03;99575.59;5067643;28;20048;-73
2022/04/05 03:44:23;;;;;;;5.85;3.75;;;;;;;7.87;81.67;99571.47;5067801;28;20071;-73
2022/04/05 03:46:49;;;;;;;5.60;3.30;;;;;;;8.20;80.69;99565.03;5067786;28;20056;-73
2022/04/05 03:49:16;;;;;;;6.07;3.25;;;;;;;8.20;80.04;99572.06;5067886;28;20075;-73
2022/04/05 03:51:42;;;;;;;7.10;4.22;;;;;;;8.28;79.76;99583.75;5068507;28;20048;-73
2022/04/05 03:54:09;;;;;;;6.47;3.92;;;;;;;7.99;81.44;99591.59;5067380;28;20070;-73
2022/04/05 03:56:35;;;;;;;7.55;3.90;;;;;;;7.78;82.47;99591.09;5068299;28;20094;-73
2022/04/05 03:59:03;;;;;;;6.72;3.58;;;;;;;7.65;83.28;99609.22;5067924;28;20562;-73
2022/04/05 04:01:29;;;;;;;7.15;2.40;;;;;;;7.26;82.06;99601.91;5057234;28;20455;-73
2022/04/05 04:03:56;;;;;;;6.13;1.80;;;;;;;7.11;82.97;99615.81;5067981;28;20106;-73
2022/04/05 04:06:22;;;;;;;4.70;1.27;;;;;;;6.55;84.61;99616.25;5068249;28;20044;-74
2022/04/05 04:08:48;;;;;;;4.93;1.35;;;;;;;6.47;85.57;99625.41;5059119;28;20577;-74
2022/04/05 04:11:15;;;;;;;5.05;1.40;;;;;;;6.24;87.03;99629.22;5068186;28;20052;-74
2022/04/05 04:13:41;;;;;;;5.97;1.20;;;;;;;6.53;86.30;99628.53;5067676;28;20098;-74
2022/04/05 04:16:09;;;;;;;8.32;1.00;;;;;;;6.66;84.97;99632.16;5066718;28;20064;-74
2022/04/05 04:18:35;;;;;;;4.75;1.15;;;;;;;6.66;84.97;99633.91;5067874;28;20101;-74
2022/04/05 04:21:02;;;;;;;5.00;1.15;;;;;;;6.37;86.15;99640.66;5067993;28;20048;-73
2022/04/05 04:23:29;;;;;;;3.90;0.70;;;;;;;5.70;88.72;99641.44;5067934;28;20049;-78
2022/04/05 04:25:56;;;;;;;3.90;0.90;;;;;;;5.64;89.53;99649.53;5066113;28;20460;-76
2022/04/05 04:28:22;;;;;;;4.72;1.00;;;;;;;6.02;87.86;99646.84;5067094;28;20048;-77
2022/04/05 04:30:49;;;;;;;8.68;1.30;;;;;;;6.07;87.41;99642.22;5066450;28;20048;-77
2022/04/05 04:33:16;;;;;;;7.18;1.80;;;;;;;5.98;87.39;99642.72;5067099;28;20723;-76
2022/04/05 04:35:45;;;;;;;4.85;1.38;;;;;;;6.25;86.53;99649.94;5066947;28;20056;-76
2022/04/05 04:38:12;;;;;;;8.07;1.30;;;;;;;6.54;85.30;99656.25;5067161;28;20041;-74
2022/04/05 04:40:39;;;;;;;7.55;1.40;;;;;;;6.47;85.16;99657.47;5066776;28;20420;-73
2022/04/05 04:43:06;;;;;;;5.43;1.77;;;;;;;6.45;85.04;99654.13;5067895;28;20052;-73
2022/04/05 04:45:32;;;;;;;9.50;1.85;;;;;;;6.41;85.81;99652.59;5066330;28;20087;-74
2022/04/05 04:47:59;;;;;;;8.48;2.08;;;;;;;6.28;85.47;99646.34;5066534;28;20100;-74
2022/04/05 04:50:26;;;;;;;7.95;2.17;;;;;;;6.79;83.84;99654.03;5065817;28;20106;-76
2022/04/05 04:52:53;;;;;;;7.32;2.45;;;;;;;6.69;83.57;99657.19;5065966;28;20040;-74
2022/04/05 04:55:19;;;;;;;4.93;2.15;;;;;;;6.70;83.82;99657.13;5066071;28;20102;-74
2022/04/05 04:57:45;;;;;;;7.32;2.08;;;;;;;6.52;84.59;99662.47;5066365;28;20464;-74
2022/04/05 05:00:12;;;;;;;10.20;2.53;;;;;;;6.47;84.97;99665.28;5066818;28;20049;-73
2022/04/05 05:02:46;;;;;;;7.47;1.88;;;;;;;6.66;83.88;99663.41;5065864;28;20089;-75
2022/04/05 05:05:14;;;;;;;12.75;1.77;;;;;;;7.00;82.36;99669.44;5066358;28;20090;-75
2022/04/05 05:07:44;;;;;;;6.65;1.52;;;;;;;7.24;81.21;99671.53;5065803;28;20049;-75
2022/04/05 05:10:11;;;;;;;10.55;2.20;;;;;;;6.75;82.96;99681.19;5063618;28;20048;-75
2022/04/05 05:12:38;;;;;;;10.27;1.90;;;;;;;6.88;82.95;99688.31;5067035;28;20045;-75
2022/04/05 05:15:05;;;;;;;4.60;1.55;;;;;;;7.10;81.71;99694.06;5066693;28;20048;-75
2022/04/05 05:17:31;;;;;;;6.15;1.45;;;;;;;6.73;83.08;99698.63;5067267;28;20048;-75
2022/04/05 05:19:58;;;;;;;7.18;1.52;;;;;;;6.99;81.60;99701.63;5066343;28;20074;-76
2022/04/05 05:22:24;;;;;;;7.65;1.95;;;;;;;6.66;82.92;99704.25;5065994;28;20044;-76
2022/04/05 05:24:52;;;;;;;9.95;1.85;;;;;;;6.87;82.44;99710.13;5066054;28;20082;-76
2022/04/05 05:27:18;;;;;;;9.15;2.08;;;;;;;6.83;82.55;99714.66;5067157;28;20566;-76
2022/04/05 05:29:45;;;;;;;5.88;1.67;;;;;;;6.81;82.50;99729.50;5066288;28;20466;-76
2022/04/05 05:32:11;;;;;;;10.75;2.60;;;;;;;6.75;82.94;99725.47;5066592;28;20450;-77
2022/04/05 05:34:37;;;;;;;14.88;3.05;;;;;;;6.76;82.45;99736.75;5066672;28;20048;-77
2022/04/05 05:37:05;;;;;;;9.27;2.30;;;;;;;6.99;81.53;99738.13;5067012;28;20459;-76
2022/04/05 05:39:31;;;;;;;6.82;1.92;;;;;;;6.76;82.64;99737.56;5064946;28;20077;-75
2022/04/05 05:41:59;;;;;;;13.75;2.60;;;;;;;6.66;83.23;99746.78;5063009;28;20053;-75
2022/04/05 05:44:26;;;;;;;6.80;1.83;;;;;;;7.18;81.34;99751.84;5058977;28;20658;-76
2022/04/05 05:46:52;;;;;;;10.55;2.05;;;;;;;6.87;82.17;99744.84;5067982;28;20550;-76
2022/04/05 05:49:18;;;;;;;13.90;2.30;;;;;;;6.83;82.68;99751.97;5069853;28;20105;-76
2022/04/05 05:51:45;;;;;;;9.93;1.95;;;;;;;6.81;82.64;99751.19;5070554;28;20048;-76
2022/04/05 05:54:11;;;;;;;9.00;2.17;;;;;;;6.94;81.51;99766.19;5069556;28;20134;-76
2022/04/05 05:56:38;;;;;;;9.02;2.47;;;;;;;7.15;80.66;99768.50;5070506;28;20102;-76
2022/04/05 05:59:06;;;;;;;8.93;1.58;;;;;;;6.77;81.44;99767.06;5069119;28;20044;-78
2022/04/05 06:01:32;;;;;;;5.45;1.52;;;;;;;6.98;80.30;99765.97;5069350;28;20482;-78
2022/04/05 06:03:58;;;;;;;8.15;1.60;;;;;;;6.83;80.14;99770.22;5070245;28;20049;-76
2022/04/05 06:06:25;;;;;;;5.35;1.45;;;;;;;6.71;80.16;99776.03;5070307;28;20048;-76
2022/04/05 06:08:51;;;;;;;4.93;1.25;;;;;;;7.01;79.39;99780.59;5068078;28;20052;-76
2022/04/05 06:11:17;;;;;;;8.23;1.15;;;;;;;7.08;77.84;99789.78;5070340;28;20044;-76
2022/04/05 06:13:44;;;;;;;7.20;1.10;;;;;;;6.50;79.54;99792.75;5069791;28;20041;-77
2022/04/05 06:16:13;;;;;;;4.43;1.00;;;;;;;7.17;77.81;99790.13;5068899;28;20048;-76
2022/04/05 06:18:39;;;;;;;8.18;1.50;;;;;;;6.75;78.14;99800.19;5067428;28;20049;-76
2022/04/05 06:21:06;;;;;;;7.03;1.15;;;;;;;6.92;78.54;99805.34;5070763;28;20098;-75
2022/04/05 06:23:32;;;;;;;4.80;1.33;;;;;;;7.25;77.16;99816.63;5069030;28;20053;-76
2022/04/05 06:25:58;;;;;;;8.15;1.40;;;;;;;7.22;76.93;99813.34;5069834;28;20098;-75
2022/04/05 06:28:25;;;;;;;6.03;1.50;;;;;;;6.86;78.98;99813.50;5068972;28;20181;-75
2022/04/05 06:30:51;;;;;;;12.68;2.40;;;;;;;7.13;76.71;99817.28;5069239;28;20049;-75
2022/04/05 06:33:21;;;;;;;8.70;1.45;;;;;;;7.21;76.17;99820.31;5069907;28;20060;-75
2022/04/05 06:35:50;;;;;;;2.55;1.08;;;;;;;7.04;75.92;99837.78;5070001;28;20098;-75
2022/04/05 06:38:17;;;;;;;4.93;1.23;;;;;;;7.16;76.89;99837.16;5069589;28;20036;-75
2022/04/05 06:40:44;;;;;;;7.10;1.45;;;;;;;7.28;76.76;99834.72;5069150;28;20044;-75
2022/04/05 06:43:10;;;;;;;7.57;1.30;;;;;;;7.54;74.96;99841.16;5069360;28;20058;-75
2022/04/05 06:45:37;;;;;;;12.05;1.42;;;;;;;7.34;75.95;99841.41;5070293;28;20549;-75
2022/04/05 06:48:06;;;;;;;8.05;1.33;;;;;;;7.45;74.94;99843.44;5069608;28;20048;-75
2022/04/05 06:50:34;;;;;;;5.90;1.38;;;;;;;7.60;74.41;99851.28;5068955;28;20044;-75
2022/04/05 06:53:01;;;;;;;5.35;1.20;;;;;;;7.54;74.26;99851.59;5069140;28;20098;-74
2022/04/05 06:55:28;;;;;;;5.88;1.70;;;;;;;7.37;74.26;99856.88;5069739;28;20048;-73
2022/04/05 06:57:54;;;;;;;7.32;1.40;;;;;;;7.57;73.83;99856.69;5067478;28;20546;-74
2022/04/05 07:00:24;;;;;;;6.03;1.42;;;;;;;7.68;73.65;99859.56;5068374;28;20455;-73
2022/04/05 07:02:52;;;;;;;4.07;1.55;;;;;;;7.62;73.43;99854.66;5068461;28;20513;-72
2022/04/05 07:05:18;;;;;;;3.33;1.50;;;;;;;8.00;73.77;99859.56;5069167;28;20118;-72
2022/04/05 07:07:46;;;;;;;5.32;1.73;;;;;;;7.68;74.27;99856.94;5069255;28;20412;-72
2022/04/05 07:10:16;;;;;;;5.10;1.50;;;;;;;7.75;74.38;99873.97;5068135;28;20062;-72
2022/04/05 07:12:43;;;;;;;4.75;1.42;;;;;;;8.17;73.37;99877.72;5068708;28;20045;-72
2022/04/05 07:15:10;;;;;;;6.60;1.50;;;;;;;8.16;73.50;99876.91;5068947;28;20534;-73
2022/04/05 07:17:37;;;;;;;7.60;1.80;;;;;;;8.75;73.34;99870.97;5069401;28;20048;-72
2022/04/05 07:20:07;;;;;;;5.40;1.60;;;;;;;8.76;71.77;99877.00;5068610;28;20476;-72
2022/04/05 07:22:33;;;;;;;8.27;1.67;;;;;;;8.96;70.92;99865.38;5066641;28;20478;-72
2022/04/05 07:25:01;;;;;;;8.23;2.05;;;;;;;8.86;70.75;99864.25;5068489;28;20094;-72
2022/04/05 07:27:27;;;;;;;7.68;2.50;;;;;;;9.47;70.51;99864.88;5068631;28;20045;-72
2022/04/05 07:29:54;;;;;;;7.93;2.17;;;;;;;9.70;69.83;99864.31;5067746;28;20060;-72
2022/04/05 07:32:20;;;;;;;7.63;2.10;;;;;;;9.70;68.54;99866.09;5068596;28;20098;-72
2022/04/05 07:34:46;;;;;;;7.32;2.13;;;;;;;9.73;68.76;99864.13;5067908;28;20045;-72
2022/04/05 07:37:13;;;;;;;8.15;1.85;;;;;;;9.56;68.16;99868.72;5067086;28;20044;-72
2022/04/05 07:39:40;;;;;;;5.22;1.38;;;;;;;9.32;65.42;99862.34;5066531;28;20094;-72
2022/04/05 07:42:09;;;;;;;8.55;1.52;;;;;;;9.10;65.61;99879.34;5068932;28;20097;-71
2022/04/05 07:44:35;;;;;;;8.23;1.48;;;;;;;9.08;65.88;99865.53;5067645;28;20098;-71
2022/04/05 07:47:02;;;;;;;7.95;1.60;;;;;;;9.49;65.22;99881.34;5068386;28;20041;-71
2022/04/05 07:49:28;;;;;;;6.00;1.25;;;;;;;9.78;62.18;99877.78;5065616;28;20048;-71
2022/04/05 07:51:54;;;;;;;6.97;1.23;;;;;;;9.74;63.03;99892.00;5068037;28;20052;-71
2022/04/05 07:54:21;;;;;;;5.22;1.10;;;;;;;9.61;62.44;99888.44;5068065;28;20098;-71
2022/04/05 07:56:47;;;;;;;7.97;1.33;;;;;;;9.12;62.28;99885.34;5067047;28;20053;-71
2022/04/05 07:59:15;;;;;;;7.82;1.67;;;;;;;9.25;62.36;99886.28;5067127;28;20093;-71
2022/04/05 08:01:41;;;;;;;7.32;1.95;;;;;;;9.28;62.03;99882.63;5068176;28;20060;-71
2022/04/05 08:04:07;;;;;;;9.75;1.73;;;;;;;9.61;62.35;99882.34;5068301;28;20041;-71
2022/04/05 08:06:34;;;;;;;3.92;1.23;;;;;;;9.67;62.19;99882.84;5067694;28;20041;-71
2022/04/05 08:09:00;;;;;;;8.82;1.10;;;;;;;9.69;62.14;99888.81;5066838;28;20059;-71
2022/04/05 08:11:27;;;;;;;6.82;1.20;;;;;;;9.56;61.86;99887.03;5068274;28;20420;-71
2022/04/05 08:13:54;;;;;;;14.82;3.60;;;;;;;9.65;61.58;99884.69;5068069;28;20048;-71
2022/04/05 08:16:21;;;;;;;14.75;2.08;;;;;;;9.57;61.54;99889.56;5067878;28;20044;-71
2022/04/05 08:18:48;;;;;;;5.70;2.03;;;;;;;9.55;63.44;99895.81;5067495;28;20067;-71
2022/04/05 08:21:14;;;;;;;7.82;2.67;;;;;;;9.56;63.02;99898.34;5066615;28;20557;-71
2022/04/05 08:23:40;;;;;;;8.45;2.20;;;;;;;9.41;63.52;99907.13;5067920;28;20048;-71
2022/04/05 08:26:06;;;;;;;10.35;2.58;;;;;;;9.40;63.09;99900.22;5068432;28;20040;-71
2022/04/05 08:28:33;;;;;;;7.40;2.28;;;;;;;9.25;62.84;99901.97;5067786;28;20044;-71
2022/04/05 08:30:59;;;;;;;9.27;2.30;;;;;;;9.36;63.35;99903.09;5067038;28;20056;-71
2022/04/05 08:33:27;;;;;;;10.45;2.20;;;;;;;9.49;64.66;99899.66;5067739;28;20049;-71
2022/04/05 08:35:54;;;;;;;8.45;1.92;;;;;;;9.75;62.96;99893.66;5066667;28;20059;-71
2022/04/05 08:38:20;;;;;;;6.45;1.60;;;;;;;9.91;61.39;99897.94;5067619;28;20165;-71
2022/04/05 08:40:47;;;;;;;3.90;1.20;;;;;;;9.85;62.83;99900.97;5066846;28;20048;-71
2022/04/05 08:43:13;;;;;;;4.72;1.90;;;;;;;10.15;62.24;99899.94;5067807;28;20467;-71
2022/04/05 08:45:43;;;;;;;6.70;1.30;;;;;;;10.20;59.53;99894.38;5065563;28;20072;-70
2022/04/05 08:48:11;;;;;;;13.60;3.38;;;;;;;10.44;60.14;99897.22;5067372;28;20051;-70
2022/04/05 08:50:39;;;;;;;5.93;1.60;;;;;;;11.53;58.35;99884.63;5066182;28;20045;-70
2022/04/05 08:53:05;;;;;;;11.82;3.15;;;;;;;12.39;57.11;99888.97;5067563;28;20041;-71
2022/04/05 08:55:32;;;;;;;8.18;2.20;;;;;;;13.12;53.95;99896.72;5067481;28;20094;-71
2022/04/05 08:57:58;;;;;;;11.10;3.10;;;;;;;13.43;55.77;99893.44;5067525;28;20067;-71
2022/04/05 09:00:25;;;;;;;7.68;1.80;;;;;;;13.70;53.08;99889.63;5065346;28;20052;-71
2022/04/05 09:02:54;;;;;;;12.75;1.75;;;;;;;13.02;50.93;99904.44;5066641;28;20055;-71
2022/04/05 09:05:28;;;;;;;11.18;1.23;;;;;;;12.50;51.32;99904.81;5066334;28;20037;-72
2022/04/05 09:08:11;;;;;;;5.75;1.23;;;;;;;11.56;54.47;99900.16;5065079;28;20534;-73
2022/04/05 09:10:38;;;;;;;9.57;1.50;;;;;;;11.57;54.09;99897.41;5065393;28;20113;-72
2022/04/05 09:13:05;;;;;;;8.73;1.85;;;;;;;11.59;55.42;99900.78;5067476;28;20094;-72
2022/04/05 09:15:34;;;;;;;6.05;2.50;;;;;;;11.63;56.01;99898.78;5066641;28;20098;-72
2022/04/05 09:18:01;;;;;;;6.90;1.35;;;;;;;11.45;55.14;99902.69;5065774;28;20701;-67
2022/04/05 09:20:27;;;;;;;5.78;1.55;;;;;;;11.64;55.60;99890.78;5065741;28;20086;-67
2022/04/05 09:22:56;;;;;;;7.68;1.70;;;;;;;11.79;57.04;99902.06;5069128;28;20470;-67
2022/04/05 09:25:23;;;;;;;7.20;1.70;;;;;;;10.94;57.07;99901.81;5070887;28;20420;-67
2022/04/05 09:27:52;;;;;;;8.10;1.70;;;;;;;11.13;56.71;99905.69;5066089;28;20497;-67
2022/04/05 09:30:20;;;;;;;4.43;1.00;;;;;;;11.48;56.74;99899.84;5069452;28;20514;-67
2022/04/05 09:32:48;;;;;;;8.27;1.33;;;;;;;11.84;54.37;99907.00;5059206;28;20040;-67
2022/04/05 09:35:16;;;;;;;11.15;2.08;;;;;;;11.68;53.29;99902.75;5070053;28;20044;-67
2022/04/05 09:37:43;;;;;;;6.07;1.50;;;;;;;11.50;53.90;99898.78;5071049;28;20128;-67
2022/04/05 09:40:19;;;;;;;7.00;1.20;;;;;;;11.60;56.21;99899.81;5070305;28;20040;-67
2022/04/05 09:42:59;;;;;;;8.52;2.00;;;;;;;11.49;56.29;99901.53;5067308;28;20562;-67
2022/04/05 09:45:47;;;;;;;9.52;1.30;;;;;;;11.31;56.07;99900.97;5061633;28;20044;-67
2022/04/05 09:48:15;;;;;;;7.45;1.48;;;;;;;11.77;53.62;99893.44;5070694;28;20480;-66
2022/04/05 09:51:02;;;;;;;9.38;1.65;;;;;;;11.45;55.51;99905.31;5069915;28;20087;-67
2022/04/05 09:53:40;;;;;;;8.77;1.30;;;;;;;11.38;55.85;99902.25;5067118;28;20052;-67
2022/04/05 09:56:11;;;;;;;6.15;1.20;;;;;;;11.70;56.44;99894.78;5069481;28;20044;-67
2022/04/05 09:58:44;;;;;;;7.85;2.00;;;;;;;12.16;56.10;99892.41;5069392;28;20102;-67
2022/04/05 10:01:11;;;;;;;4.75;1.05;;;;;;;11.91;53.96;99902.97;5069125;28;20109;-67
2022/04/05 10:03:39;;;;;;;6.00;1.40;;;;;;;11.83;55.94;99894.78;5070869;28;20048;-67
2022/04/05 10:06:06;;;;;;;6.90;1.73;;;;;;;12.06;53.71;99901.91;5070164;28;20094;-67
2022/04/05 10:08:33;;;;;;;7.32;1.63;;;;;;;12.18;53.83;99890.53;5070306;28;20478;-67
2022/04/05 10:11:00;;;;;;;6.25;1.35;;;;;;;11.92;54.99;99899.41;5069351;28;20510;-67
2022/04/05 10:13:29;;;;;;;10.68;1.80;;;;;;;11.99;55.52;99898.03;5070263;28;20416;-67
2022/04/05 10:15:57;;;;;;;4.95;1.35;;;;;;;11.66;56.73;99904.66;5067964;28;20126;-67
2022/04/05 10:18:25;;;;;;;5.80;1.70;;;;;;;11.84;54.75;99902.59;5070129;28;20109;-67
2022/04/05 10:20:52;;;;;;;8.55;1.63;;;;;;;11.84;55.11;99910.47;5069627;28;20048;-67
2022/04/05 10:23:20;;;;;;;9.50;2.20;;;;;;;11.50;54.56;99906.66;5069697;28;20048;-67
2022/04/05 10:25:50;;;;;;;5.45;1.58;;;;;;;11.38;56.36;99902.25;5069477;28;20037;-67
2022/04/05 10:28:18;;;;;;;6.28;1.63;;;;;;;11.35;56.80;99899.84;5070047;28;20047;-67
2022/04/05 10:30:56;;;;;;;7.22;1.90;;;;;;;11.13;57.00;99900.44;5068245;28;20045;-67
2022/04/05 10:33:29;;;;;;;8.38;1.90;;;;;;;11.11;56.94;99896.25;5069591;28;20129;-67
2022/04/05 10:35:59;;;;;;;5.25;1.60;;;;;;;11.49;56.16;99898.91;5069630;28;20094;-67
2022/04/05 10:38:27;;;;;;;9.80;2.17;;;;;;;11.23;56.81;99896.25;5068490;28;20102;-67
2022/04/05 10:41:11;;;;;;;5.50;1.63;;;;;;;11.37;57.13;99892.72;5068359;28;20135;-67
2022/04/05 10:43:38;;;;;;;8.90;1.50;;;;;;;11.48;55.76;99898.06;5067877;28;20756;-67
2022/04/05 10:46:07;;;;;;;4.07;1.50;;;;;;;11.24;56.43;99894.47;5066043;28;20632;-67
2022/04/05 10:48:33;;;;;;;9.60;1.83;;;;;;;11.81;55.29;99891.44;5068799;28;20092;-67
2022/04/05 10:51:30;;;;;;;4.82;1.40;;;;;;;11.38;56.34;99890.94;5068451;28;20492;-67
2022/04/05 10:54:19;;;;;;;10.13;2.08;;;;;;;11.41;56.91;99891.56;5062436;28;20076;-67
2022/04/05 10:57:26;;;;;;;3.85;1.38;;;;;;;11.39;55.99;99893.44;5070743;28;20499;-67
2022/04/05 10:59:56;;;;;;;5.10;1.65;;;;;;;11.46;57.33;99892.06;5067767;28;20411;-67
2022/04/05 11:02:35;;;;;;;6.40;1.48;;;;;;;11.63;56.08;99897.00;5069430;28;20102;-67
2022/04/05 11:05:05;;;;;;;8.23;1.98;;;;;;;11.46;56.19;99894.69;5069474;28;20056;-67
2022/04/05 11:08:07;;;;;;;6.45;1.70;;;;;;;11.48;56.82;99895.44;5068931;28;20048;-67
2022/04/05 11:10:45;;;;;;;6.22;1.92;;;;;;;11.03;57.64;99895.94;5068169;28;20430;-67
2022/04/05 11:13:13;;;;;;;9.00;1.65;;;;;;;11.20;57.57;99885.13;5069339;28;20508;-67
2022/04/05 11:15:40;;;;;;;10.77;2.38;;;;;;;11.19;56.97;99884.31;5069002;28;20054;-67
2022/04/05 11:18:09;;;;;;;7.97;2.00;;;;;;;11.36;56.14;99888.41;5068543;28;20051;-67
2022/04/05 11:20:37;;;;;;;15.73;2.40;;;;;;;10.69;58.44;99895.53;5068242;28;20050;-67
2022/04/05 11:23:03;;;;;;;4.65;1.90;;;;;;;10.72;58.42;99890.06;5068980;28;20599;-67
2022/04/05 11:25:31;;;;;;;8.13;1.92;;;;;;;10.70;58.41;99894.59;5068134;28;20045;-67
2022/04/05 11:28:11;;;;;;;10.43;2.08;;;;;;;10.70;58.81;99878.88;5067635;28;20097;-67
2022/04/05 11:30:39;;;;;;;6.25;1.75;;;;;;;10.48;60.24;99885.59;5067503;28;20036;-67
2022/04/05 11:33:35;;;;;;;5.80;2.28;;;;;;;10.69;60.20;99878.94;5068772;28;20147;-67
2022/04/05 11:36:03;;;;;;;8.77;2.50;;;;;;;11.07;58.83;99879.88;5068478;28;20044;-67
2022/04/05 11:38:31;;;;;;;5.68;2.05;;;;;;;11.64;57.94;99874.22;5068598;28;20041;-67
2022/04/05 11:41:02;;;;;;;6.95;2.30;;;;;;;11.60;57.24;99881.44;5051155;28;20045;-67
2022/04/05 11:43:31;;;;;;;7.85;2.40;;;;;;;11.67;57.85;99882.72;5067969;28;20032;-67